sensor_id;sensor_type;location;lat;lon;timestamp;P1;durP1;ratioP1;P2;durP2;ratioP2
16837;SDS011;19510;54.486;9.046;2024-02-21T00:02:01;20.33;;;4.47;;
16837;SDS011;19510;54.486;9.046;2024-02-21T00:04:27;18.27;;;4.75;;
16837;SDS011;19510;54.486;9.046;2024-02-21T00:06:55;23.23;;;5.50;;
16837;SDS011;19510;54.486;9.046;2024-02-21T00:09:23;23.35;;;5.03;;
16837;SDS011;19510;54.486;9.046;2024-02-21T00:11:49;23.95;;;4.22;;
16837;SDS011;19510;54.486;9.046;2024-02-21T00:14:15;24.33;;;4.65;;
16837;SDS011;19510;54.486;9.046;2024-02-21T00:16:41;13.57;;;4.28;;
16837;SDS011;19510;54.486;9.046;2024-02-21T00:19:07;18.25;;;4.05;;
16837;SDS011;19510;54.486;9.046;2024-02-21T00:21:35;19.15;;;4.78;;
16837;SDS011;19510;54.486;9.046;2024-02-21T00:24:03;15.07;;;3.72;;
16837;SDS011;19510;54.486;9.046;2024-02-21T00:26:31;15.23;;;3.92;;
16837;SDS011;19510;54.486;9.046;2024-02-21T00:28:56;19.35;;;3.92;;
16837;SDS011;19510;54.486;9.046;2024-02-21T00:31:27;10.35;;;3.28;;
16837;SDS011;19510;54.486;9.046;2024-02-21T00:33:52;19.00;;;3.88;;
16837;SDS011;19510;54.486;9.046;2024-02-21T00:36:18;17.98;;;3.78;;
16837;SDS011;19510;54.486;9.046;2024-02-21T00:38:47;16.52;;;3.63;;
16837;SDS011;19510;54.486;9.046;2024-02-21T00:41:12;19.05;;;4.00;;
16837;SDS011;19510;54.486;9.046;2024-02-21T00:43:38;22.70;;;3.92;;
16837;SDS011;19510;54.486;9.046;2024-02-21T00:46:06;18.88;;;4.97;;
16837;SDS011;19510;54.486;9.046;2024-02-21T00:48:32;14.50;;;3.80;;
16837;SDS011;19510;54.486;9.046;2024-02-21T00:51:00;21.23;;;3.70;;
16837;SDS011;19510;54.486;9.046;2024-02-21T00:53:26;17.98;;;3.95;;
16837;SDS011;19510;54.486;9.046;2024-02-21T00:55:51;10.63;;;3.17;;
16837;SDS011;19510;54.486;9.046;2024-02-21T00:58:17;11.35;;;2.70;;
16837;SDS011;19510;54.486;9.046;2024-02-21T01:00:47;7.90;;;2.10;;
16837;SDS011;19510;54.486;9.046;2024-02-21T01:03:13;11.48;;;2.30;;
16837;SDS011;19510;54.486;9.046;2024-02-21T01:05:39;8.63;;;1.90;;
16837;SDS011;19510;54.486;9.046;2024-02-21T01:08:05;6.05;;;1.95;;
16837;SDS011;19510;54.486;9.046;2024-02-21T01:10:31;7.25;;;1.70;;
16837;SDS011;19510;54.486;9.046;2024-02-21T01:12:56;6.13;;;1.98;;
16837;SDS011;19510;54.486;9.046;2024-02-21T01:15:24;8.57;;;2.45;;
16837;SDS011;19510;54.486;9.046;2024-02-21T01:17:52;16.30;;;2.47;;
16837;SDS011;19510;54.486;9.046;2024-02-21T01:20:20;8.65;;;2.33;;
16837;SDS011;19510;54.486;9.046;2024-02-21T01:22:46;9.20;;;2.70;;
16837;SDS011;19510;54.486;9.046;2024-02-21T01:25:14;9.75;;;2.88;;
16837;SDS011;19510;54.486;9.046;2024-02-21T01:27:39;10.63;;;2.78;;
16837;SDS011;19510;54.486;9.046;2024-02-21T01:30:05;16.95;;;2.92;;
16837;SDS011;19510;54.486;9.046;2024-02-21T01:32:32;9.63;;;2.88;;
16837;SDS011;19510;54.486;9.046;2024-02-21T01:34:57;14.07;;;3.17;;
16837;SDS011;19510;54.486;9.046;2024-02-21T01:37:23;14.25;;;3.08;;
16837;SDS011;19510;54.486;9.046;2024-02-21T01:39:49;14.27;;;3.75;;
16837;SDS011;19510;54.486;9.046;2024-02-21T01:42:16;15.30;;;3.80;;
16837;SDS011;19510;54.486;9.046;2024-02-21T01:44:42;11.65;;;3.25;;
16837;SDS011;19510;54.486;9.046;2024-02-21T01:47:08;18.00;;;3.65;;
16837;SDS011;19510;54.486;9.046;2024-02-21T01:49:34;15.30;;;3.20;;
16837;SDS011;19510;54.486;9.046;2024-02-21T01:52:00;16.17;;;3.58;;
16837;SDS011;19510;54.486;9.046;2024-02-21T01:54:29;20.92;;;3.65;;
16837;SDS011;19510;54.486;9.046;2024-02-21T01:56:55;18.45;;;4.88;;
16837;SDS011;19510;54.486;9.046;2024-02-21T01:59:21;25.00;;;4.53;;
16837;SDS011;19510;54.486;9.046;2024-02-21T02:01:48;23.38;;;3.50;;
16837;SDS011;19510;54.486;9.046;2024-02-21T02:04:18;18.63;;;3.90;;
16837;SDS011;19510;54.486;9.046;2024-02-21T02:06:45;17.85;;;3.47;;
16837;SDS011;19510;54.486;9.046;2024-02-21T02:09:11;23.13;;;4.30;;
16837;SDS011;19510;54.486;9.046;2024-02-21T02:11:37;17.45;;;3.50;;
16837;SDS011;19510;54.486;9.046;2024-02-21T02:14:03;19.60;;;3.70;;
16837;SDS011;19510;54.486;9.046;2024-02-21T02:16:28;17.90;;;3.85;;
16837;SDS011;19510;54.486;9.046;2024-02-21T02:18:54;23.23;;;5.15;;
16837;SDS011;19510;54.486;9.046;2024-02-21T02:21:24;30.70;;;4.22;;
16837;SDS011;19510;54.486;9.046;2024-02-21T02:23:56;29.58;;;4.03;;
16837;SDS011;19510;54.486;9.046;2024-02-21T02:26:24;28.70;;;4.20;;
16837;SDS011;19510;54.486;9.046;2024-02-21T02:28:50;28.10;;;4.88;;
16837;SDS011;19510;54.486;9.046;2024-02-21T02:31:16;23.65;;;4.63;;
16837;SDS011;19510;54.486;9.046;2024-02-21T02:33:45;20.75;;;4.20;;
16837;SDS011;19510;54.486;9.046;2024-02-21T02:36:13;27.67;;;4.43;;
16837;SDS011;19510;54.486;9.046;2024-02-21T02:38:38;24.98;;;4.03;;
16837;SDS011;19510;54.486;9.046;2024-02-21T02:41:04;21.67;;;3.22;;
16837;SDS011;19510;54.486;9.046;2024-02-21T02:43:30;19.02;;;4.10;;
16837;SDS011;19510;54.486;9.046;2024-02-21T02:45:56;20.25;;;4.22;;
16837;SDS011;19510;54.486;9.046;2024-02-21T02:48:22;21.23;;;3.95;;
16837;SDS011;19510;54.486;9.046;2024-02-21T02:50:50;22.02;;;4.18;;
16837;SDS011;19510;54.486;9.046;2024-02-21T02:53:16;15.95;;;3.38;;
16837;SDS011;19510;54.486;9.046;2024-02-21T02:55:41;21.95;;;3.85;;
16837;SDS011;19510;54.486;9.046;2024-02-21T02:58:07;20.23;;;4.15;;
16837;SDS011;19510;54.486;9.046;2024-02-21T03:00:33;29.92;;;3.70;;
16837;SDS011;19510;54.486;9.046;2024-02-21T03:03:01;22.48;;;4.28;;
16837;SDS011;19510;54.486;9.046;2024-02-21T03:05:30;22.02;;;3.92;;
16837;SDS011;19510;54.486;9.046;2024-02-21T03:07:55;19.70;;;4.78;;
16837;SDS011;19510;54.486;9.046;2024-02-21T03:10:25;22.83;;;5.07;;
16837;SDS011;19510;54.486;9.046;2024-02-21T03:12:54;17.25;;;4.03;;
16837;SDS011;19510;54.486;9.046;2024-02-21T03:15:20;19.85;;;4.00;;
16837;SDS011;19510;54.486;9.046;2024-02-21T03:17:45;25.90;;;4.18;;
16837;SDS011;19510;54.486;9.046;2024-02-21T03:20:13;22.67;;;4.65;;
16837;SDS011;19510;54.486;9.046;2024-02-21T03:22:44;31.75;;;5.80;;
16837;SDS011;19510;54.486;9.046;2024-02-21T03:25:10;23.85;;;3.35;;
16837;SDS011;19510;54.486;9.046;2024-02-21T03:27:40;32.28;;;4.57;;
16837;SDS011;19510;54.486;9.046;2024-02-21T03:30:08;31.48;;;4.55;;
16837;SDS011;19510;54.486;9.046;2024-02-21T03:32:36;25.05;;;3.85;;
16837;SDS011;19510;54.486;9.046;2024-02-21T03:35:04;16.85;;;3.90;;
16837;SDS011;19510;54.486;9.046;2024-02-21T03:37:33;27.88;;;4.57;;
16837;SDS011;19510;54.486;9.046;2024-02-21T03:40:01;24.00;;;4.57;;
16837;SDS011;19510;54.486;9.046;2024-02-21T03:42:27;20.90;;;4.38;;
16837;SDS011;19510;54.486;9.046;2024-02-21T03:44:58;22.73;;;3.97;;
16837;SDS011;19510;54.486;9.046;2024-02-21T03:47:26;28.55;;;4.75;;
16837;SDS011;19510;54.486;9.046;2024-02-21T03:49:52;20.50;;;4.50;;
16837;SDS011;19510;54.486;9.046;2024-02-21T03:52:17;20.25;;;4.20;;
16837;SDS011;19510;54.486;9.046;2024-02-21T03:54:45;27.60;;;5.63;;
16837;SDS011;19510;54.486;9.046;2024-02-21T03:57:11;20.45;;;3.70;;
16837;SDS011;19510;54.486;9.046;2024-02-21T03:59:37;19.88;;;3.95;;
16837;SDS011;19510;54.486;9.046;2024-02-21T04:02:05;18.95;;;4.18;;
16837;SDS011;19510;54.486;9.046;2024-02-21T04:04:34;28.13;;;4.65;;
16837;SDS011;19510;54.486;9.046;2024-02-21T04:07:02;22.02;;;4.82;;
16837;SDS011;19510;54.486;9.046;2024-02-21T04:09:31;22.35;;;4.80;;
16837;SDS011;19510;54.486;9.046;2024-02-21T04:12:00;25.42;;;3.65;;
16837;SDS011;19510;54.486;9.046;2024-02-21T04:14:26;25.67;;;4.00;;
16837;SDS011;19510;54.486;9.046;2024-02-21T04:16:52;30.13;;;4.47;;
16837;SDS011;19510;54.486;9.046;2024-02-21T04:19:20;25.27;;;4.57;;
16837;SDS011;19510;54.486;9.046;2024-02-21T04:21:48;26.20;;;4.15;;
16837;SDS011;19510;54.486;9.046;2024-02-21T04:24:14;30.13;;;4.00;;
16837;SDS011;19510;54.486;9.046;2024-02-21T04:26:42;27.60;;;4.65;;
16837;SDS011;19510;54.486;9.046;2024-02-21T04:29:08;25.60;;;4.15;;
16837;SDS011;19510;54.486;9.046;2024-02-21T04:31:36;20.40;;;4.18;;
16837;SDS011;19510;54.486;9.046;2024-02-21T04:34:02;23.45;;;3.90;;
16837;SDS011;19510;54.486;9.046;2024-02-21T04:36:33;25.02;;;4.65;;
16837;SDS011;19510;54.486;9.046;2024-02-21T04:38:59;20.08;;;4.38;;
16837;SDS011;19510;54.486;9.046;2024-02-21T04:41:24;28.00;;;5.25;;
16837;SDS011;19510;54.486;9.046;2024-02-21T04:43:50;24.70;;;4.15;;
16837;SDS011;19510;54.486;9.046;2024-02-21T04:46:16;22.95;;;4.28;;
16837;SDS011;19510;54.486;9.046;2024-02-21T04:48:44;26.95;;;4.50;;
16837;SDS011;19510;54.486;9.046;2024-02-21T04:51:09;20.25;;;4.13;;
16837;SDS011;19510;54.486;9.046;2024-02-21T04:53:38;31.17;;;3.92;;
16837;SDS011;19510;54.486;9.046;2024-02-21T04:56:06;19.75;;;3.60;;
16837;SDS011;19510;54.486;9.046;2024-02-21T04:58:37;15.10;;;4.18;;
16837;SDS011;19510;54.486;9.046;2024-02-21T05:01:04;25.33;;;4.40;;
16837;SDS011;19510;54.486;9.046;2024-02-21T05:03:30;27.17;;;4.55;;
16837;SDS011;19510;54.486;9.046;2024-02-21T05:05:58;20.65;;;4.20;;
16837;SDS011;19510;54.486;9.046;2024-02-21T05:08:26;29.85;;;4.40;;
16837;SDS011;19510;54.486;9.046;2024-02-21T05:10:52;24.98;;;4.07;;
16837;SDS011;19510;54.486;9.046;2024-02-21T05:13:18;23.88;;;4.13;;
16837;SDS011;19510;54.486;9.046;2024-02-21T05:15:46;21.27;;;4.00;;
16837;SDS011;19510;54.486;9.046;2024-02-21T05:18:12;26.85;;;5.40;;
16837;SDS011;19510;54.486;9.046;2024-02-21T05:20:38;34.70;;;5.07;;
16837;SDS011;19510;54.486;9.046;2024-02-21T05:23:03;20.88;;;3.65;;
16837;SDS011;19510;54.486;9.046;2024-02-21T05:25:29;25.55;;;3.95;;
16837;SDS011;19510;54.486;9.046;2024-02-21T05:27:55;18.17;;;3.38;;
16837;SDS011;19510;54.486;9.046;2024-02-21T05:30:21;23.90;;;3.50;;
16837;SDS011;19510;54.486;9.046;2024-02-21T05:32:47;20.20;;;4.20;;
16837;SDS011;19510;54.486;9.046;2024-02-21T05:35:14;26.48;;;4.65;;
16837;SDS011;19510;54.486;9.046;2024-02-21T05:37:40;34.75;;;5.15;;
16837;SDS011;19510;54.486;9.046;2024-02-21T05:40:11;22.52;;;4.82;;
16837;SDS011;19510;54.486;9.046;2024-02-21T05:42:38;23.48;;;3.95;;
16837;SDS011;19510;54.486;9.046;2024-02-21T05:45:04;23.27;;;4.38;;
16837;SDS011;19510;54.486;9.046;2024-02-21T05:47:30;21.55;;;4.13;;
16837;SDS011;19510;54.486;9.046;2024-02-21T05:49:58;19.63;;;4.15;;
16837;SDS011;19510;54.486;9.046;2024-02-21T05:52:24;20.92;;;4.13;;
16837;SDS011;19510;54.486;9.046;2024-02-21T05:54:52;17.85;;;3.55;;
16837;SDS011;19510;54.486;9.046;2024-02-21T05:57:20;18.90;;;3.50;;
16837;SDS011;19510;54.486;9.046;2024-02-21T05:59:45;19.23;;;3.63;;
16837;SDS011;19510;54.486;9.046;2024-02-21T06:02:11;23.00;;;3.67;;
16837;SDS011;19510;54.486;9.046;2024-02-21T06:04:41;20.52;;;4.00;;
16837;SDS011;19510;54.486;9.046;2024-02-21T06:07:08;24.58;;;3.97;;
16837;SDS011;19510;54.486;9.046;2024-02-21T06:09:34;20.73;;;3.95;;
16837;SDS011;19510;54.486;9.046;2024-02-21T06:11:59;23.83;;;3.97;;
16837;SDS011;19510;54.486;9.046;2024-02-21T06:14:27;22.08;;;4.63;;
16837;SDS011;19510;54.486;9.046;2024-02-21T06:16:53;22.48;;;4.18;;
16837;SDS011;19510;54.486;9.046;2024-02-21T06:19:18;22.02;;;4.00;;
16837;SDS011;19510;54.486;9.046;2024-02-21T06:21:48;23.33;;;4.22;;
16837;SDS011;19510;54.486;9.046;2024-02-21T06:24:14;39.60;;;3.78;;
16837;SDS011;19510;54.486;9.046;2024-02-21T06:26:40;25.27;;;4.90;;
16837;SDS011;19510;54.486;9.046;2024-02-21T06:29:16;22.63;;;4.10;;
16837;SDS011;19510;54.486;9.046;2024-02-21T06:32:01;29.92;;;4.07;;
16837;SDS011;19510;54.486;9.046;2024-02-21T06:34:32;25.10;;;4.70;;
16837;SDS011;19510;54.486;9.046;2024-02-21T06:36:58;19.40;;;3.75;;
16837;SDS011;19510;54.486;9.046;2024-02-21T06:39:24;25.15;;;4.38;;
16837;SDS011;19510;54.486;9.046;2024-02-21T06:41:50;22.48;;;4.00;;
16837;SDS011;19510;54.486;9.046;2024-02-21T06:44:19;19.45;;;3.58;;
16837;SDS011;19510;54.486;9.046;2024-02-21T06:46:45;18.30;;;3.95;;
16837;SDS011;19510;54.486;9.046;2024-02-21T06:49:10;26.73;;;4.45;;
16837;SDS011;19510;54.486;9.046;2024-02-21T06:51:42;29.42;;;3.75;;
16837;SDS011;19510;54.486;9.046;2024-02-21T06:54:10;23.05;;;3.83;;
16837;SDS011;19510;54.486;9.046;2024-02-21T06:56:36;27.07;;;4.30;;
16837;SDS011;19510;54.486;9.046;2024-02-21T06:59:05;18.52;;;3.63;;
16837;SDS011;19510;54.486;9.046;2024-02-21T07:01:31;28.35;;;4.95;;
16837;SDS011;19510;54.486;9.046;2024-02-21T07:03:57;17.10;;;3.78;;
16837;SDS011;19510;54.486;9.046;2024-02-21T07:06:23;19.42;;;3.72;;
16837;SDS011;19510;54.486;9.046;2024-02-21T07:08:49;24.10;;;3.85;;
16837;SDS011;19510;54.486;9.046;2024-02-21T07:11:15;28.00;;;4.38;;
16837;SDS011;19510;54.486;9.046;2024-02-21T07:13:40;19.42;;;3.85;;
16837;SDS011;19510;54.486;9.046;2024-02-21T07:16:08;22.63;;;3.95;;
16837;SDS011;19510;54.486;9.046;2024-02-21T07:18:36;20.85;;;3.90;;
16837;SDS011;19510;54.486;9.046;2024-02-21T07:21:02;19.05;;;3.65;;
16837;SDS011;19510;54.486;9.046;2024-02-21T07:23:28;26.38;;;3.97;;
16837;SDS011;19510;54.486;9.046;2024-02-21T07:25:54;14.15;;;3.85;;
16837;SDS011;19510;54.486;9.046;2024-02-21T07:28:19;19.35;;;3.65;;
16837;SDS011;19510;54.486;9.046;2024-02-21T07:30:47;21.58;;;3.63;;
16837;SDS011;19510;54.486;9.046;2024-02-21T07:33:13;20.20;;;5.35;;
16837;SDS011;19510;54.486;9.046;2024-02-21T07:35:41;31.30;;;6.63;;
16837;SDS011;19510;54.486;9.046;2024-02-21T07:38:09;17.65;;;3.30;;
16837;SDS011;19510;54.486;9.046;2024-02-21T07:40:37;17.60;;;4.05;;
16837;SDS011;19510;54.486;9.046;2024-02-21T07:43:04;25.48;;;3.53;;
16837;SDS011;19510;54.486;9.046;2024-02-21T07:45:29;14.50;;;3.60;;
16837;SDS011;19510;54.486;9.046;2024-02-21T07:47:55;20.67;;;3.60;;
16837;SDS011;19510;54.486;9.046;2024-02-21T07:50:21;17.98;;;3.63;;
16837;SDS011;19510;54.486;9.046;2024-02-21T07:52:49;20.60;;;4.03;;
16837;SDS011;19510;54.486;9.046;2024-02-21T07:55:17;18.30;;;3.90;;
16837;SDS011;19510;54.486;9.046;2024-02-21T07:57:43;20.52;;;3.50;;
16837;SDS011;19510;54.486;9.046;2024-02-21T08:00:08;18.92;;;3.78;;
16837;SDS011;19510;54.486;9.046;2024-02-21T08:02:38;24.67;;;3.67;;
16837;SDS011;19510;54.486;9.046;2024-02-21T08:05:10;21.25;;;2.97;;
16837;SDS011;19510;54.486;9.046;2024-02-21T08:07:37;17.23;;;3.45;;
16837;SDS011;19510;54.486;9.046;2024-02-21T08:10:03;18.23;;;3.90;;
16837;SDS011;19510;54.486;9.046;2024-02-21T08:12:29;18.52;;;3.55;;
16837;SDS011;19510;54.486;9.046;2024-02-21T08:14:57;26.58;;;3.90;;
16837;SDS011;19510;54.486;9.046;2024-02-21T08:17:23;19.55;;;3.42;;
16837;SDS011;19510;54.486;9.046;2024-02-21T08:19:49;23.63;;;4.25;;
16837;SDS011;19510;54.486;9.046;2024-02-21T08:22:18;20.73;;;3.80;;
16837;SDS011;19510;54.486;9.046;2024-02-21T08:24:43;25.65;;;3.85;;
16837;SDS011;19510;54.486;9.046;2024-02-21T08:27:09;22.98;;;3.83;;
16837;SDS011;19510;54.486;9.046;2024-02-21T08:29:37;25.40;;;4.28;;
16837;SDS011;19510;54.486;9.046;2024-02-21T08:32:03;21.42;;;3.63;;
16837;SDS011;19510;54.486;9.046;2024-02-21T08:34:31;26.85;;;4.03;;
16837;SDS011;19510;54.486;9.046;2024-02-21T08:36:59;23.73;;;4.32;;
16837;SDS011;19510;54.486;9.046;2024-02-21T08:39:27;23.05;;;4.53;;
16837;SDS011;19510;54.486;9.046;2024-02-21T08:41:55;20.45;;;4.93;;
16837;SDS011;19510;54.486;9.046;2024-02-21T08:44:22;24.35;;;4.03;;
16837;SDS011;19510;54.486;9.046;2024-02-21T08:46:55;19.20;;;3.47;;
16837;SDS011;19510;54.486;9.046;2024-02-21T08:49:23;25.10;;;4.13;;
16837;SDS011;19510;54.486;9.046;2024-02-21T08:51:51;30.05;;;4.55;;
16837;SDS011;19510;54.486;9.046;2024-02-21T08:54:16;18.70;;;4.43;;
16837;SDS011;19510;54.486;9.046;2024-02-21T08:56:44;24.52;;;3.92;;
16837;SDS011;19510;54.486;9.046;2024-02-21T08:59:10;16.08;;;4.03;;
16837;SDS011;19510;54.486;9.046;2024-02-21T09:01:36;18.95;;;5.18;;
16837;SDS011;19510;54.486;9.046;2024-02-21T09:04:06;19.67;;;3.17;;
16837;SDS011;19510;54.486;9.046;2024-02-21T09:06:32;24.80;;;3.47;;
16837;SDS011;19510;54.486;9.046;2024-02-21T09:09:01;26.25;;;3.92;;
16837;SDS011;19510;54.486;9.046;2024-02-21T09:11:29;22.55;;;4.68;;
16837;SDS011;19510;54.486;9.046;2024-02-21T09:13:55;17.60;;;3.25;;
16837;SDS011;19510;54.486;9.046;2024-02-21T09:16:20;25.92;;;3.75;;
16837;SDS011;19510;54.486;9.046;2024-02-21T09:18:47;28.17;;;3.83;;
16837;SDS011;19510;54.486;9.046;2024-02-21T09:21:12;22.55;;;4.22;;
16837;SDS011;19510;54.486;9.046;2024-02-21T09:23:38;22.85;;;3.83;;
16837;SDS011;19510;54.486;9.046;2024-02-21T09:26:06;19.02;;;4.43;;
16837;SDS011;19510;54.486;9.046;2024-02-21T09:28:33;18.67;;;3.95;;
16837;SDS011;19510;54.486;9.046;2024-02-21T09:30:59;17.73;;;3.55;;
16837;SDS011;19510;54.486;9.046;2024-02-21T09:33:25;24.98;;;3.92;;
16837;SDS011;19510;54.486;9.046;2024-02-21T09:35:50;23.63;;;4.25;;
16837;SDS011;19510;54.486;9.046;2024-02-21T09:38:19;25.75;;;3.42;;
16837;SDS011;19510;54.486;9.046;2024-02-21T09:40:44;13.85;;;4.10;;
16837;SDS011;19510;54.486;9.046;2024-02-21T09:43:16;23.25;;;3.63;;
16837;SDS011;19510;54.486;9.046;2024-02-21T09:45:43;16.65;;;4.63;;
16837;SDS011;19510;54.486;9.046;2024-02-21T09:48:19;22.38;;;3.72;;
16837;SDS011;19510;54.486;9.046;2024-02-21T09:50:55;17.02;;;3.47;;
16837;SDS011;19510;54.486;9.046;2024-02-21T09:53:24;17.15;;;4.60;;
16837;SDS011;19510;54.486;9.046;2024-02-21T09:55:51;21.77;;;3.42;;
16837;SDS011;19510;54.486;9.046;2024-02-21T09:58:18;14.43;;;3.97;;
16837;SDS011;19510;54.486;9.046;2024-02-21T10:00:44;23.20;;;3.67;;
16837;SDS011;19510;54.486;9.046;2024-02-21T10:03:09;21.10;;;3.60;;
16837;SDS011;19510;54.486;9.046;2024-02-21T10:05:35;20.52;;;3.70;;
16837;SDS011;19510;54.486;9.046;2024-02-21T10:08:02;17.00;;;3.20;;
16837;SDS011;19510;54.486;9.046;2024-02-21T10:10:29;17.40;;;3.78;;
16837;SDS011;19510;54.486;9.046;2024-02-21T10:13:07;17.27;;;3.25;;
16837;SDS011;19510;54.486;9.046;2024-02-21T10:15:33;17.02;;;3.63;;
16837;SDS011;19510;54.486;9.046;2024-02-21T10:18:01;16.83;;;2.67;;
16837;SDS011;19510;54.486;9.046;2024-02-21T10:20:31;14.02;;;2.40;;
16837;SDS011;19510;54.486;9.046;2024-02-21T10:23:02;20.70;;;4.20;;
16837;SDS011;19510;54.486;9.046;2024-02-21T10:25:33;16.65;;;3.45;;
16837;SDS011;19510;54.486;9.046;2024-02-21T10:28:00;14.30;;;3.15;;
16837;SDS011;19510;54.486;9.046;2024-02-21T10:30:27;16.75;;;3.20;;
16837;SDS011;19510;54.486;9.046;2024-02-21T10:32:53;14.85;;;4.05;;
16837;SDS011;19510;54.486;9.046;2024-02-21T10:35:31;11.95;;;3.40;;
16837;SDS011;19510;54.486;9.046;2024-02-21T10:37:58;18.10;;;3.17;;
16837;SDS011;19510;54.486;9.046;2024-02-21T10:40:30;20.00;;;3.17;;
16837;SDS011;19510;54.486;9.046;2024-02-21T10:42:57;17.95;;;2.95;;
16837;SDS011;19510;54.486;9.046;2024-02-21T10:45:35;15.48;;;3.53;;
16837;SDS011;19510;54.486;9.046;2024-02-21T10:48:06;16.30;;;2.95;;
16837;SDS011;19510;54.486;9.046;2024-02-21T10:50:43;18.30;;;3.72;;
16837;SDS011;19510;54.486;9.046;2024-02-21T10:56:29;19.25;;;3.42;;
16837;SDS011;19510;54.486;9.046;2024-02-21T10:59:05;14.13;;;2.92;;
16837;SDS011;19510;54.486;9.046;2024-02-21T11:01:33;18.20;;;3.67;;
16837;SDS011;19510;54.486;9.046;2024-02-21T11:04:05;15.40;;;3.10;;
16837;SDS011;19510;54.486;9.046;2024-02-21T11:06:36;17.35;;;2.92;;
16837;SDS011;19510;54.486;9.046;2024-02-21T11:09:09;16.83;;;3.45;;
16837;SDS011;19510;54.486;9.046;2024-02-21T11:11:38;10.82;;;2.88;;
16837;SDS011;19510;54.486;9.046;2024-02-21T11:14:08;13.80;;;2.90;;
16837;SDS011;19510;54.486;9.046;2024-02-21T11:16:39;12.70;;;2.40;;
16837;SDS011;19510;54.486;9.046;2024-02-21T11:19:06;10.80;;;2.75;;
16837;SDS011;19510;54.486;9.046;2024-02-21T11:21:47;11.10;;;3.42;;
16837;SDS011;19510;54.486;9.046;2024-02-21T11:24:13;15.07;;;2.78;;
16837;SDS011;19510;54.486;9.046;2024-02-21T11:26:41;11.38;;;3.17;;
16837;SDS011;19510;54.486;9.046;2024-02-21T11:29:07;14.80;;;3.38;;
16837;SDS011;19510;54.486;9.046;2024-02-21T11:31:41;11.13;;;3.30;;
16837;SDS011;19510;54.486;9.046;2024-02-21T11:34:17;20.13;;;4.18;;
16837;SDS011;19510;54.486;9.046;2024-02-21T11:37:02;12.00;;;3.83;;
16837;SDS011;19510;54.486;9.046;2024-02-21T11:39:37;21.08;;;4.00;;
16837;SDS011;19510;54.486;9.046;2024-02-21T11:42:07;15.27;;;4.38;;
16837;SDS011;19510;54.486;9.046;2024-02-21T11:44:36;22.58;;;4.57;;
16837;SDS011;19510;54.486;9.046;2024-02-21T11:47:05;22.20;;;5.28;;
16837;SDS011;19510;54.486;9.046;2024-02-21T11:49:36;17.42;;;4.00;;
16837;SDS011;19510;54.486;9.046;2024-02-21T11:52:08;12.10;;;3.75;;
16837;SDS011;19510;54.486;9.046;2024-02-21T11:54:34;12.60;;;4.03;;
16837;SDS011;19510;54.486;9.046;2024-02-21T11:57:02;15.95;;;3.75;;
16837;SDS011;19510;54.486;9.046;2024-02-21T11:59:33;13.93;;;3.90;;
16837;SDS011;19510;54.486;9.046;2024-02-21T12:02:01;12.75;;;3.47;;
16837;SDS011;19510;54.486;9.046;2024-02-21T12:04:30;13.07;;;3.67;;
16837;SDS011;19510;54.486;9.046;2024-02-21T12:06:56;10.05;;;3.45;;
16837;SDS011;19510;54.486;9.046;2024-02-21T12:09:23;12.38;;;3.92;;
16837;SDS011;19510;54.486;9.046;2024-02-21T12:12:03;9.23;;;3.58;;
16837;SDS011;19510;54.486;9.046;2024-02-21T12:14:33;7.57;;;2.90;;
16837;SDS011;19510;54.486;9.046;2024-02-21T12:17:00;5.88;;;3.05;;
16837;SDS011;19510;54.486;9.046;2024-02-21T12:19:32;6.97;;;2.90;;
16837;SDS011;19510;54.486;9.046;2024-02-21T12:21:59;7.05;;;3.05;;
16837;SDS011;19510;54.486;9.046;2024-02-21T12:24:28;5.00;;;3.42;;
16837;SDS011;19510;54.486;9.046;2024-02-21T12:26:54;8.43;;;3.75;;
16837;SDS011;19510;54.486;9.046;2024-02-21T12:29:22;8.45;;;3.25;;
16837;SDS011;19510;54.486;9.046;2024-02-21T12:31:51;6.72;;;3.60;;
16837;SDS011;19510;54.486;9.046;2024-02-21T12:34:18;8.00;;;3.60;;
16837;SDS011;19510;54.486;9.046;2024-02-21T12:36:45;5.18;;;3.40;;
16837;SDS011;19510;54.486;9.046;2024-02-21T12:39:14;7.38;;;3.40;;
16837;SDS011;19510;54.486;9.046;2024-02-21T12:41:42;4.90;;;2.88;;
16837;SDS011;19510;54.486;9.046;2024-02-21T12:44:09;5.28;;;3.08;;
16837;SDS011;19510;54.486;9.046;2024-02-21T12:46:38;4.25;;;2.90;;
16837;SDS011;19510;54.486;9.046;2024-02-21T12:49:07;6.20;;;4.00;;
16837;SDS011;19510;54.486;9.046;2024-02-21T12:51:36;9.93;;;4.50;;
16837;SDS011;19510;54.486;9.046;2024-02-21T12:54:05;12.25;;;5.22;;
16837;SDS011;19510;54.486;9.046;2024-02-21T12:56:30;7.10;;;5.00;;
16837;SDS011;19510;54.486;9.046;2024-02-21T12:58:57;11.65;;;5.97;;
16837;SDS011;19510;54.486;9.046;2024-02-21T13:01:23;13.32;;;5.78;;
16837;SDS011;19510;54.486;9.046;2024-02-21T13:03:51;13.27;;;5.22;;
16837;SDS011;19510;54.486;9.046;2024-02-21T13:06:17;12.85;;;6.10;;
16837;SDS011;19510;54.486;9.046;2024-02-21T13:08:44;14.52;;;5.57;;
16837;SDS011;19510;54.486;9.046;2024-02-21T13:11:11;11.15;;;4.75;;
16837;SDS011;19510;54.486;9.046;2024-02-21T13:13:40;10.85;;;4.43;;
16837;SDS011;19510;54.486;9.046;2024-02-21T13:16:09;11.50;;;5.68;;
16837;SDS011;19510;54.486;9.046;2024-02-21T13:18:39;14.18;;;5.47;;
16837;SDS011;19510;54.486;9.046;2024-02-21T13:21:07;18.13;;;5.72;;
16837;SDS011;19510;54.486;9.046;2024-02-21T13:23:33;11.68;;;5.80;;
16837;SDS011;19510;54.486;9.046;2024-02-21T13:25:59;11.25;;;4.80;;
16837;SDS011;19510;54.486;9.046;2024-02-21T13:28:24;11.40;;;5.47;;
16837;SDS011;19510;54.486;9.046;2024-02-21T13:30:50;9.30;;;4.68;;
16837;SDS011;19510;54.486;9.046;2024-02-21T13:33:16;9.65;;;4.80;;
16837;SDS011;19510;54.486;9.046;2024-02-21T13:35:44;11.85;;;4.88;;
16837;SDS011;19510;54.486;9.046;2024-02-21T13:38:10;10.23;;;5.20;;
16837;SDS011;19510;54.486;9.046;2024-02-21T13:40:37;13.18;;;6.22;;
16837;SDS011;19510;54.486;9.046;2024-02-21T13:43:02;11.73;;;6.53;;
16837;SDS011;19510;54.486;9.046;2024-02-21T13:45:28;14.27;;;6.07;;
16837;SDS011;19510;54.486;9.046;2024-02-21T13:47:56;11.13;;;6.55;;
16837;SDS011;19510;54.486;9.046;2024-02-21T13:50:23;14.70;;;7.07;;
16837;SDS011;19510;54.486;9.046;2024-02-21T13:53:06;15.85;;;7.40;;
16837;SDS011;19510;54.486;9.046;2024-02-21T13:55:37;14.18;;;7.43;;
16837;SDS011;19510;54.486;9.046;2024-02-21T13:58:08;13.80;;;8.05;;
16837;SDS011;19510;54.486;9.046;2024-02-21T14:00:36;16.60;;;8.55;;
16837;SDS011;19510;54.486;9.046;2024-02-21T14:03:02;15.80;;;8.77;;
16837;SDS011;19510;54.486;9.046;2024-02-21T14:05:28;19.10;;;9.18;;
16837;SDS011;19510;54.486;9.046;2024-02-21T14:07:54;21.55;;;10.07;;
16837;SDS011;19510;54.486;9.046;2024-02-21T14:10:20;21.40;;;10.20;;
16837;SDS011;19510;54.486;9.046;2024-02-21T14:12:49;19.52;;;9.35;;
16837;SDS011;19510;54.486;9.046;2024-02-21T14:15:14;19.77;;;9.75;;
16837;SDS011;19510;54.486;9.046;2024-02-21T14:17:49;22.02;;;9.80;;
16837;SDS011;19510;54.486;9.046;2024-02-21T14:20:14;18.38;;;9.80;;
16837;SDS011;19510;54.486;9.046;2024-02-21T14:22:40;24.00;;;11.10;;
16837;SDS011;19510;54.486;9.046;2024-02-21T14:25:06;23.05;;;10.15;;
16837;SDS011;19510;54.486;9.046;2024-02-21T14:27:34;23.95;;;11.07;;
16837;SDS011;19510;54.486;9.046;2024-02-21T14:30:03;21.42;;;10.15;;
16837;SDS011;19510;54.486;9.046;2024-02-21T14:32:34;23.50;;;10.30;;
16837;SDS011;19510;54.486;9.046;2024-02-21T14:35:00;21.48;;;10.15;;
16837;SDS011;19510;54.486;9.046;2024-02-21T14:37:25;20.00;;;10.75;;
16837;SDS011;19510;54.486;9.046;2024-02-21T14:39:53;24.63;;;11.38;;
16837;SDS011;19510;54.486;9.046;2024-02-21T14:42:19;25.20;;;11.35;;